Time;durP1;ratioP1;P1;durP2;ratioP2;P2;SDS_P1;SDS_P2;PMS_P1;PMS_P2;Temp;Humidity;BMP_temperature;BMP_pressure;BME280_temperature;BME280_humidity;BME280_pressure;Samples;Min_cycle;Max_cycle;Signal;HPM_P1;HPM_P2
2022/08/13 00:01:14;;;;;;;;;;;;;;;22.40;85.73;101690.72;2607239;36;19943;-49
2022/08/13 00:03:45;;;;;;;;;;;;;;;22.26;93.39;101703.41;2615043;36;20351;-48
2022/08/13 00:06:14;;;;;;;;;;;;;;;22.20;93.58;101687.69;2613805;36;19955;-47
2022/08/13 00:08:42;;;;;;;;;;;;;;;22.31;93.46;101689.94;2614521;36;19946;-51
2022/08/13 00:12:56;;;;;;;;;;;;;;;22.00;94.72;101696.53;2615006;36;19981;-51
2022/08/13 00:13:55;;;;;;;;;;;;;;;22.13;93.92;101695.88;2613321;36;19954;-48
2022/08/13 00:16:24;;;;;;;;;;;;;;;22.04;96.74;101688.81;2614601;36;19950;-51
2022/08/13 00:18:55;;;;;;;;;;;;;;;22.09;93.75;101694.53;2615040;36;19973;-51
2022/08/13 00:21:25;;;;;;;;;;;;;;;22.28;96.92;101692.25;2613415;36;19973;-48
2022/08/13 00:23:57;;;;;;;;;;;;;;;22.17;94.30;101685.34;2613437;36;20664;-48
2022/08/13 00:26:25;;;;;;;;;;;;;;;22.02;94.46;101688.97;2612575;36;19946;-50
2022/08/13 00:28:54;;;;;;;;;;;;;;;21.93;93.88;101687.38;2614012;36;19955;-54
2022/08/13 00:31:23;;;;;;;;;;;;;;;21.93;94.22;101687.38;2610504;36;19958;-50
2022/08/13 00:33:51;;;;;;;;;;;;;;;21.51;96.77;101687.03;2610775;36;19979;-49
2022/08/13 00:36:23;;;;;;;;;;;;;;;21.59;93.51;101691.56;2610040;36;19942;-52
2022/08/13 00:38:52;;;;;;;;;;;;;;;22.08;88.95;101686.50;2613854;36;19950;-51
2022/08/13 00:44:01;;;;;;;;;;;;;;;22.82;81.65;101680.78;2610936;36;19953;-50
2022/08/13 00:46:29;;;;;;;;;;;;;;;22.82;82.27;101679.91;2609545;36;20005;-50
2022/08/13 00:48:54;;;;;;;;;;;;;;;23.00;83.03;101683.03;2612410;36;19954;-48
2022/08/13 00:51:26;;;;;;;;;;;;;;;23.16;80.01;101678.31;2613980;36;19954;-50
2022/08/13 00:53:54;;;;;;;;;;;;;;;23.15;79.80;101679.41;2614347;36;19958;-49
2022/08/13 00:56:24;;;;;;;;;;;;;;;22.98;78.43;101682.41;2613796;31;19954;-52
2022/08/13 00:58:53;;;;;;;;;;;;;;;22.72;84.33;101681.13;2614128;36;19942;-51
2022/08/13 01:01:25;;;;;;;;;;;;;;;22.84;83.14;101677.84;2605088;36;19994;-49
2022/08/13 01:03:53;;;;;;;;;;;;;;;22.71;80.09;101676.66;2613046;36;19969;-50
2022/08/13 01:06:21;;;;;;;;;;;;;;;22.86;81.88;101681.22;2613440;36;19983;-50
2022/08/13 01:08:53;;;;;;;;;;;;;;;22.80;81.62;101679.28;2615116;36;19958;-47
2022/08/13 01:11:21;;;;;;;;;;;;;;;22.67;81.44;101680.00;2607209;36;19946;-48
2022/08/13 01:13:50;;;;;;;;;;;;;;;22.63;82.85;101684.19;2614389;36;19954;-49
2022/08/13 01:16:18;;;;;;;;;;;;;;;22.61;81.08;101678.06;2615657;31;19946;-49
2022/08/13 01:18:47;;;;;;;;;;;;;;;22.73;81.95;101687.44;2613994;36;19982;-49
2022/08/13 01:21:17;;;;;;;;;;;;;;;22.50;78.97;101682.19;2614661;36;20324;-50
2022/08/13 01:23:49;;;;;;;;;;;;;;;22.63;83.31;101684.19;2615422;36;20319;-49
2022/08/13 01:26:22;;;;;;;;;;;;;;;22.54;83.34;101688.94;2615816;36;20356;-49
2022/08/13 01:28:51;;;;;;;;;;;;;;;22.38;83.53;101690.06;2615151;36;19957;-51
2022/08/13 01:31:20;;;;;;;;;;;;;;;22.52;81.30;101682.81;2613932;36;19947;-51
2022/08/13 01:33:48;;;;;;;;;;;;;;;22.49;78.87;101683.22;2614537;36;19954;-48
2022/08/13 01:36:17;;;;;;;;;;;;;;;22.21;83.46;101692.16;2614430;36;20490;-50
2022/08/13 01:38:48;;;;;;;;;;;;;;;22.48;81.85;101687.84;2615974;36;19946;-53
2022/08/13 01:41:16;;;;;;;;;;;;;;;22.64;79.60;101686.72;2615422;36;20402;-53
2022/08/13 01:43:44;;;;;;;;;;;;;;;22.27;80.87;101688.63;2615783;36;19977;-50
2022/08/13 01:46:14;;;;;;;;;;;;;;;22.28;85.10;101690.34;2615633;36;19945;-49
2022/08/13 01:51:25;;;;;;;;;;;;;;;22.05;86.56;101688.59;2615676;36;20041;-51
2022/08/13 01:53:58;;;;;;;;;;;;;;;22.14;83.98;101683.88;2615568;36;20424;-53
2022/08/13 01:56:25;;;;;;;;;;;;;;;;;;2615170;36;20605;-47
2022/08/13 01:58:54;;;;;;;;;;;;;;;22.30;83.20;101687.41;2615363;36;20042;-48
2022/08/13 02:01:25;;;;;;;;;;;;;;;22.22;83.50;101681.00;2615312;36;19951;-48
2022/08/13 02:03:53;;;;;;;;;;;;;;;22.16;84.43;101691.91;2611889;36;19947;-52
2022/08/13 02:06:24;;;;;;;;;;;;;;;22.34;83.06;101692.34;2613842;31;19992;-50
2022/08/13 02:08:56;;;;;;;;;;;;;;;22.04;85.28;101688.81;2611585;36;19962;-50
2022/08/13 02:11:27;;;;;;;;;;;;;;;22.30;83.86;101692.88;2604799;36;20352;-52
2022/08/13 02:13:55;;;;;;;;;;;;;;;22.31;84.88;101695.44;2611885;36;22161;-51
2022/08/13 02:16:24;;;;;;;;;;;;;;;22.13;85.56;101689.50;2611171;36;19954;-53
2022/08/13 02:18:53;;;;;;;;;;;;;;;22.14;86.44;101688.47;2603954;31;19985;-50
2022/08/13 02:21:22;;;;;;;;;;;;;;;22.01;84.23;101690.03;2611138;36;19952;-48
2022/08/13 02:23:56;;;;;;;;;;;;;;;22.16;86.75;101689.16;2613531;36;20049;-51
2022/08/13 02:26:27;;;;;;;;;;;;;;;21.90;85.22;101687.78;2612306;36;20030;-47
2022/08/13 02:28:57;;;;;;;;;;;;;;;21.66;91.92;101691.69;2612212;36;19950;-51
2022/08/13 02:31:26;;;;;;;;;;;;;;;21.98;89.42;101686.81;2610247;31;20038;-53
2022/08/13 02:33:54;;;;;;;;;;;;;;;21.80;87.93;101682.56;2610486;36;19957;-50
2022/08/13 02:36:23;;;;;;;;;;;;;;;21.79;91.11;101686.38;2610690;31;19958;-51
2022/08/13 02:38:54;;;;;;;;;;;;;;;21.78;87.49;101681.09;2614732;36;19946;-47
2022/08/13 02:44:06;;;;;;;;;;;;;;;21.90;86.17;101682.28;2615247;36;19946;-54
2022/08/13 02:46:34;;;;;;;;;;;;;;;21.86;89.16;101680.97;2611440;36;20483;-51
2022/08/13 02:49:02;;;;;;;;;;;;;;;21.83;87.06;101684.09;2611248;31;19946;-50
2022/08/13 02:51:31;;;;;;;;;;;;;;;21.75;88.34;101684.22;2610800;36;20436;-50
2022/08/13 02:53:59;;;;;;;;;;;;;;;21.82;89.61;101683.25;2614826;36;20002;-47
2022/08/13 02:56:27;;;;;;;;;;;;;;;22.09;86.25;101685.47;2613217;36;21084;-50
2022/08/13 02:58:56;;;;;;;;;;;;;;;21.94;84.59;101693.72;2613108;36;19971;-50
2022/08/13 03:01:27;;;;;;;;;;;;;;;21.83;88.68;101686.81;2612307;36;19958;-49
2022/08/13 03:03:55;;;;;;;;;;;;;;;21.76;87.45;101688.63;2611061;31;19951;-50
2022/08/13 03:06:25;;;;;;;;;;;;;;;21.68;86.13;101687.69;2610973;36;20046;-50
2022/08/13 03:08:53;;;;;;;;;;;;;;;21.50;92.31;101682.59;2613807;31;19966;-50
2022/08/13 03:11:22;;;;;;;;;;;;;;;21.69;85.71;101685.81;2615194;36;19962;-49
2022/08/13 03:13:54;;;;;;;;;;;;;;;21.65;88.82;101688.06;2614898;36;19950;-49
2022/08/13 03:16:24;;;;;;;;;;;;;;;21.82;83.48;101677.75;2615073;36;19957;-46
2022/08/13 03:18:57;;;;;;;;;;;;;;;21.81;87.87;101680.69;2607165;36;19958;-47
2022/08/13 03:21:26;;;;;;;;;;;;;;;21.76;87.12;101677.66;2615475;31;20392;-49
2022/08/13 03:23:54;;;;;;;;;;;;;;;21.86;88.11;101689.19;2608020;36;19977;-49
2022/08/13 03:26:22;;;;;;;;;;;;;;;21.86;87.40;101686.44;2614546;36;19954;-48
2022/08/13 03:28:51;;;;;;;;;;;;;;;21.68;86.08;101689.59;2615162;36;19954;-49
2022/08/13 03:31:20;;;;;;;;;;;;;;;21.78;88.08;101690.16;2615605;36;20352;-49
2022/08/13 03:33:52;;;;;;;;;;;;;;;21.74;90.09;101687.97;2614146;54;19950;-50
2022/08/13 03:36:24;;;;;;;;;;;;;;;21.68;88.94;101684.94;2614714;36;19950;-50
2022/08/13 03:38:52;;;;;;;;;;;;;;;21.82;87.95;101693.34;2614941;36;20444;-47
2022/08/13 03:41:20;;;;;;;;;;;;;;;21.76;88.61;101692.25;2614539;36;19995;-49
2022/08/13 03:43:49;;;;;;;;;;;;;;;21.79;87.39;101691.84;2615255;36;20317;-49
2022/08/13 03:46:19;;;;;;;;;;;;;;;21.73;86.67;101686.28;2615282;36;19950;-48
2022/08/13 03:48:48;;;;;;;;;;;;;;;21.88;86.14;101689.88;2614372;36;19950;-51
2022/08/13 03:51:16;;;;;;;;;;;;;;;22.00;84.83;101692.97;2615026;36;20325;-50
2022/08/13 03:53:47;;;;;;;;;;;;;;;21.88;85.31;101693.44;2615013;36;19950;-50
2022/08/13 03:56:18;;;;;;;;;;;;;;;21.96;84.70;101692.47;2614165;36;19946;-50
2022/08/13 03:58:46;;;;;;;;;;;;;;;21.73;86.94;101686.28;2614500;36;19950;-48
2022/08/13 04:01:17;;;;;;;;;;;;;;;21.90;85.23;101684.19;2614889;36;19953;-48
2022/08/13 04:03:46;;;;;;;;;;;;;;;21.84;85.11;101677.56;2613650;36;20045;-50
2022/08/13 04:06:16;;;;;;;;;;;;;;;21.92;84.27;101685.66;2613962;36;19981;-48
2022/08/13 04:08:45;;;;;;;;;;;;;;;21.73;83.76;101691.75;2614007;36;20081;-46
2022/08/13 04:11:17;;;;;;;;;;;;;;;21.78;85.61;101689.31;2614811;36;19959;-50
2022/08/13 04:13:45;;;;;;;;;;;;;;;21.67;83.83;101694.22;2614669;36;20037;-48
2022/08/13 04:16:15;;;;;;;;;;;;;;;21.83;85.38;101695.06;2614526;31;20471;-49
2022/08/13 04:18:43;;;;;;;;;;;;;;;21.81;85.00;101691.66;2613707;36;20061;-50
2022/08/13 04:21:14;;;;;;;;;;;;;;;21.76;85.43;101694.09;2614219;36;20395;-48
2022/08/13 04:23:43;;;;;;;;;;;;;;;21.66;84.45;101694.41;2607022;31;19946;-45
2022/08/13 04:26:14;;;;;;;;;;;;;;;21.50;87.11;101690.81;2613337;31;20089;-49
2022/08/13 04:28:45;;;;;;;;;;;;;;;21.66;87.70;101692.50;2614329;36;19947;-49
2022/08/13 04:31:16;;;;;;;;;;;;;;;21.73;86.19;101686.28;2613776;36;19969;-50
2022/08/13 04:33:44;;;;;;;;;;;;;;;21.73;85.10;101691.75;2614683;31;19950;-48
2022/08/13 04:36:12;;;;;;;;;;;;;;;21.77;85.71;101688.44;2614722;31;19954;-50
2022/08/13 04:38:40;;;;;;;;;;;;;;;21.80;85.57;101698.19;2614588;36;19947;-47
2022/08/13 04:41:08;;;;;;;;;;;;;;;21.70;86.40;101696.59;2614694;36;20367;-50
2022/08/13 04:43:36;;;;;;;;;;;;;;;21.69;86.75;101689.38;2614621;36;19947;-49
2022/08/13 04:46:07;;;;;;;;;;;;;;;21.72;86.48;101687.34;2614288;36;20038;-50
2022/08/13 04:48:35;;;;;;;;;;;;;;;21.74;86.46;101688.81;2615223;36;20348;-51
2022/08/13 04:51:05;;;;;;;;;;;;;;;21.74;85.86;101693.47;2614265;36;20031;-49
2022/08/13 04:53:34;;;;;;;;;;;;;;;21.81;85.13;101686.19;2613931;36;19962;-53
2022/08/13 04:56:04;;;;;;;;;;;;;;;21.57;88.52;101687.31;2614064;36;19955;-50
2022/08/13 04:58:36;;;;;;;;;;;;;;;21.70;86.95;101702.06;2614774;36;19969;-50
2022/08/13 05:01:08;;;;;;;;;;;;;;;21.70;86.96;101704.81;2613909;36;19987;-48
2022/08/13 05:03:40;;;;;;;;;;;;;;;21.61;87.98;101707.81;2614460;36;20037;-50
2022/08/13 05:06:11;;;;;;;;;;;;;;;21.65;88.53;101701.75;2614510;36;20415;-50
2022/08/13 05:08:41;;;;;;;;;;;;;;;21.56;88.61;101708.38;2613660;36;19962;-52
2022/08/13 05:11:13;;;;;;;;;;;;;;;21.58;89.52;101705.44;2615636;36;20360;-49
2022/08/13 05:13:42;;;;;;;;;;;;;;;21.46;89.94;101705.88;2615148;36;20038;-50
2022/08/13 05:16:11;;;;;;;;;;;;;;;21.49;90.70;101701.91;2615236;31;20037;-49
2022/08/13 05:18:43;;;;;;;;;;;;;;;21.37;92.92;101709.75;2615586;36;19946;-48
2022/08/13 05:21:11;;;;;;;;;;;;;;;21.03;96.97;101713.84;2615115;36;19962;-50
2022/08/13 05:23:40;;;;;;;;;;;;;;;21.18;95.31;101709.22;2615063;36;19977;-45
2022/08/13 05:26:10;;;;;;;;;;;;;;;21.11;96.88;101705.56;2614404;36;19981;-52
2022/08/13 05:28:38;;;;;;;;;;;;;;;21.21;95.28;101709.91;2615040;36;19950;-52
2022/08/13 05:31:06;;;;;;;;;;;;;;;20.98;99.18;101702.59;2613982;31;19974;-47
2022/08/13 05:33:35;;;;;;;;;;;;;;;21.00;97.04;101712.31;2607783;36;19997;-47
2022/08/13 05:36:07;;;;;;;;;;;;;;;20.98;96.18;101706.19;2615124;36;20364;-51
2022/08/13 05:38:35;;;;;;;;;;;;;;;20.75;100.00;101713.56;2613823;36;20049;-47
2022/08/13 05:41:05;;;;;;;;;;;;;;;20.79;100.00;101698.50;2605675;36;19996;-49
2022/08/13 05:43:36;;;;;;;;;;;;;;;20.99;100.00;101696.06;2611479;36;19965;-50
2022/08/13 05:46:05;;;;;;;;;;;;;;;20.91;94.59;101699.75;2612581;36;20573;-49
2022/08/13 05:48:34;;;;;;;;;;;;;;;20.83;100.00;101692.47;2611838;36;19945;-50
2022/08/13 05:51:04;;;;;;;;;;;;;;;20.90;100.00;101687.09;2612201;36;19997;-51
2022/08/13 05:53:35;;;;;;;;;;;;;;;20.86;100.00;101688.50;2611672;36;19951;-49
2022/08/13 05:56:04;;;;;;;;;;;;;;;21.10;98.60;101684.69;2610925;36;19962;-48
2022/08/13 05:58:32;;;;;;;;;;;;;;;20.99;99.51;101686.00;2613691;36;20375;-48
2022/08/13 06:03:41;;;;;;;;;;;;;;;21.02;96.80;101692.13;2611504;31;19946;-48
2022/08/13 06:06:14;;;;;;;;;;;;;;;20.89;99.95;101690.88;2611332;36;20001;-49
2022/08/13 06:08:45;;;;;;;;;;;;;;;20.83;99.82;101691.59;2610918;36;19946;-47
2022/08/13 06:11:16;;;;;;;;;;;;;;;20.84;98.88;101693.31;2613968;36;20454;-52
2022/08/13 06:13:44;;;;;;;;;;;;;;;20.91;100.00;101696.16;2611522;36;19946;-49
2022/08/13 06:16:13;;;;;;;;;;;;;;;20.95;99.43;101695.59;2610833;36;20398;-47
2022/08/13 06:18:43;;;;;;;;;;;;;;;21.05;98.06;101691.75;2611425;36;19989;-48
2022/08/13 06:21:13;;;;;;;;;;;;;;;21.10;98.69;101700.28;2611600;31;19943;-49
2022/08/13 06:23:42;;;;;;;;;;;;;;;21.11;99.50;101693.75;2612705;36;19946;-50
2022/08/13 06:26:14;;;;;;;;;;;;;;;21.15;96.20;101689.59;2613437;36;19953;-51
2022/08/13 06:28:44;;;;;;;;;;;;;;;21.20;94.91;101689.03;2611706;36;20065;-49
2022/08/13 06:31:14;;;;;;;;;;;;;;;21.25;97.94;101695.66;2611241;36;19950;-49
2022/08/13 06:33:43;;;;;;;;;;;;;;;21.32;96.68;101695.78;2611205;31;19990;-51
2022/08/13 06:36:12;;;;;;;;;;;;;;;21.28;97.56;101694.44;2612160;36;20320;-49
2022/08/13 06:38:43;;;;;;;;;;;;;;;21.42;95.09;101692.75;2614543;31;20396;-48
2022/08/13 06:41:14;;;;;;;;;;;;;;;21.64;94.74;101700.09;2608470;36;19950;-49
2022/08/13 06:43:43;;;;;;;;;;;;;;;21.80;93.09;101692.69;2614326;36;19950;-46
2022/08/13 06:46:12;;;;;;;;;;;;;;;22.07;90.25;101695.78;2614314;31;19977;-47
2022/08/13 06:48:42;;;;;;;;;;;;;;;22.29;85.32;101693.91;2607870;36;19947;-47
2022/08/13 06:51:12;;;;;;;;;;;;;;;22.64;84.60;101697.69;2612451;36;20443;-51
2022/08/13 06:53:41;;;;;;;;;;;;;;;22.74;82.10;101694.63;2614775;36;19950;-49
2022/08/13 06:56:16;;;;;;;;;;;;;;;23.02;75.74;101696.56;2613279;36;19996;-49
2022/08/13 06:58:48;;;;;;;;;;;;;;;23.25;78.34;101696.38;2615669;36;20352;-49
2022/08/13 07:01:19;;;;;;;;;;;;;;;23.30;79.37;101699.34;2614766;36;19954;-50
2022/08/13 07:03:48;;;;;;;;;;;;;;;23.77;70.59;101700.47;2615027;36;20362;-51
2022/08/13 07:06:17;;;;;;;;;;;;;;;23.86;70.70;101697.59;2614351;36;20358;-50
2022/08/13 07:08:46;;;;;;;;;;;;;;;23.90;73.62;101698.91;2614822;36;19968;-50
2022/08/13 07:11:26;;;;;;;;;;;;;;;24.06;70.74;101695.78;2614523;36;20440;-51
2022/08/13 07:13:58;;;;;;;;;;;;;;;24.06;69.54;101698.53;2613196;36;19962;-49
2022/08/13 07:16:27;;;;;;;;;;;;;;;24.39;65.32;101697.78;2615238;36;19950;-50
2022/08/13 07:18:56;;;;;;;;;;;;;;;24.54;79.42;101702.28;2614505;36;19950;-52
2022/08/13 07:21:25;;;;;;;;;;;;;;;24.93;63.93;101696.00;2615372;36;19973;-50
2022/08/13 07:23:54;;;;;;;;;;;;;;;24.96;74.54;101694.75;2614945;36;19985;-47
2022/08/13 07:26:24;;;;;;;;;;;;;;;25.09;67.86;101700.25;2615115;36;19973;-49
2022/08/13 07:28:53;;;;;;;;;;;;;;;25.58;59.86;101700.00;2616226;36;20378;-47
2022/08/13 07:31:25;;;;;;;;;;;;;;;25.63;57.74;101709.31;2615397;36;19957;-49
2022/08/13 07:33:54;;;;;;;;;;;;;;;25.67;60.48;101701.44;2614775;36;20460;-46
2022/08/13 07:36:23;;;;;;;;;;;;;;;25.68;58.05;101705.91;2614986;36;20082;-49
2022/08/13 07:38:52;;;;;;;;;;;;;;;25.95;59.95;101703.06;2614903;36;20331;-49
2022/08/13 07:41:21;;;;;;;;;;;;;;;25.89;56.93;101705.59;2615116;36;19950;-49
2022/08/13 07:43:49;;;;;;;;;;;;;;;26.28;55.74;101700.19;2615500;36;19946;-51
2022/08/13 07:46:19;;;;;;;;;;;;;;;26.18;55.69;101705.31;2614942;31;20571;-47
2022/08/13 07:48:51;;;;;;;;;;;;;;;26.09;62.14;101701.97;2607934;36;19962;-49
2022/08/13 07:51:21;;;;;;;;;;;;;;;26.35;55.55;101711.16;2614975;36;19980;-49
2022/08/13 07:53:50;;;;;;;;;;;;;;;26.37;58.03;101715.41;2615196;36;19954;-49
2022/08/13 07:56:20;;;;;;;;;;;;;;;26.73;54.29;101713.09;2611947;36;20512;-48
2022/08/13 07:58:48;;;;;;;;;;;;;;;26.67;55.67;101708.44;2615127;36;19950;-52
2022/08/13 08:01:18;;;;;;;;;;;;;;;26.88;53.72;101705.34;2614954;36;19938;-51
2022/08/13 08:03:47;;;;;;;;;;;;;;;26.77;53.81;101713.47;2613970;36;19954;-50
2022/08/13 08:06:18;;;;;;;;;;;;;;;27.13;53.66;101693.41;2614433;36;19954;-53
2022/08/13 08:08:47;;;;;;;;;;;;;;;27.32;54.91;101699.81;2614301;36;19951;-50
2022/08/13 08:12:30;;;;;;;;;;;;;;;27.36;51.69;101695.56;2614981;36;19950;-52
2022/08/13 08:14:01;;;;;;;;;;;;;;;27.28;53.49;101691.16;2614681;36;20038;-50
2022/08/13 08:16:31;;;;;;;;;;;;;;;27.41;51.82;101689.34;2615061;36;20368;-48
2022/08/13 08:19:00;;;;;;;;;;;;;;;27.42;51.10;101694.66;2612736;36;20363;-48
2022/08/13 08:21:32;;;;;;;;;;;;;;;27.65;50.20;101692.28;2614126;36;20455;-48
2022/08/13 08:24:01;;;;;;;;;;;;;;;27.82;48.76;101693.34;2615150;36;20416;-49
2022/08/13 08:26:29;;;;;;;;;;;;;;;28.29;46.31;101699.16;2613923;31;20440;-49
2022/08/13 08:28:58;;;;;;;;;;;;;;;28.19;48.21;101696.09;2615031;36;19953;-52
2022/08/13 08:31:27;;;;;;;;;;;;;;;28.14;48.88;101701.50;2614156;36;19958;-50
2022/08/13 08:33:57;;;;;;;;;;;;;;;28.40;48.81;101693.91;2613316;36;20450;-51
2022/08/13 08:36:26;;;;;;;;;;;;;;;28.84;46.97;101702.84;2614185;36;19973;-49
2022/08/13 08:44:23;;;;;;;;;;;;;;;28.94;44.94;101697.56;2615251;31;20780;-48
2022/08/13 08:46:51;;;;;;;;;;;;;;;28.71;44.71;101700.28;2614230;36;19947;-51
2022/08/13 08:49:20;;;;;;;;;;;;;;;28.97;44.00;101699.84;2614485;36;19947;-49
2022/08/13 08:51:49;;;;;;;;;;;;;;;29.01;44.74;101695.50;2615397;36;19946;-52
2022/08/13 08:54:20;;;;;;;;;;;;;;;29.21;45.02;101704.56;2608853;36;19946;-50
2022/08/13 08:56:49;;;;;;;;;;;;;;;28.93;44.09;101695.03;2615197;31;20471;-49
2022/08/13 08:59:17;;;;;;;;;;;;;;;28.73;44.69;101695.38;2606077;36;19957;-47
2022/08/13 09:01:45;;;;;;;;;;;;;;;29.08;44.55;101689.88;2615595;36;20054;-48
2022/08/13 09:04:14;;;;;;;;;;;;;;;29.56;43.07;101679.63;2614265;36;19955;-47
2022/08/13 09:06:43;;;;;;;;;;;;;;;29.45;42.87;101663.84;2615037;36;20251;-52
2022/08/13 09:09:13;;;;;;;;;;;;;;;29.05;43.56;101675.63;2613439;31;19939;-49
2022/08/13 09:11:45;;;;;;;;;;;;;;;29.36;43.55;101669.75;2615210;36;19951;-50
2022/08/13 09:14:13;;;;;;;;;;;;;;;29.78;43.25;101662.31;2615546;31;19977;-51
2022/08/13 09:16:43;;;;;;;;;;;;;;;29.73;42.90;101664.97;2615581;36;19993;-49
2022/08/13 09:19:12;;;;;;;;;;;;;;;29.87;44.08;101658.97;2614719;36;19953;-52
2022/08/13 09:21:45;;;;;;;;;;;;;;;29.42;42.65;101669.88;2613562;36;20163;-47
2022/08/13 09:24:15;;;;;;;;;;;;;;;29.29;42.49;101666.25;2614504;36;20448;-51
2022/08/13 09:26:47;;;;;;;;;;;;;;;29.63;41.02;101663.69;2616024;36;20486;-52
2022/08/13 09:29:18;;;;;;;;;;;;;;;29.95;42.49;101670.75;2615275;36;19994;-46
2022/08/13 09:31:47;;;;;;;;;;;;;;;29.68;42.53;101661.03;2613043;36;20444;-49
2022/08/13 09:34:16;;;;;;;;;;;;;;;29.73;41.19;101662.19;2614247;31;19946;-50
2022/08/13 09:36:44;;;;;;;;;;;;;;;30.18;39.06;101665.13;2614590;31;19962;-48
2022/08/13 09:39:22;;;;;;;;;;;;;;;30.39;38.82;101666.34;2613420;36;19946;-49
2022/08/13 09:41:53;;;;;;;;;;;;;;;30.25;40.34;101659.38;2614557;36;19957;-50
2022/08/13 09:44:21;;;;;;;;;;;;;;;30.05;39.81;101668.19;2614915;36;19946;-51
2022/08/13 09:46:49;;;;;;;;;;;;;;;30.16;40.82;101660.91;2615546;36;19975;-49
2022/08/13 09:49:17;;;;;;;;;;;;;;;30.22;40.83;101659.91;2614083;36;19985;-50
2022/08/13 09:51:45;;;;;;;;;;;;;;;30.30;40.41;101662.28;2614168;36;19951;-51
2022/08/13 09:54:14;;;;;;;;;;;;;;;30.48;40.72;101655.69;2614006;36;19981;-52
2022/08/13 09:56:42;;;;;;;;;;;;;;;30.37;41.89;101662.09;2614766;36;19973;-51
2022/08/13 09:59:13;;;;;;;;;;;;;;;30.54;39.80;101651.91;2608556;36;20328;-52
2022/08/13 10:01:41;;;;;;;;;;;;;;;30.51;40.89;101657.13;2604686;36;20457;-50
2022/08/13 10:04:11;;;;;;;;;;;;;;;30.53;39.12;101654.94;2614622;36;19961;-50
2022/08/13 10:06:39;;;;;;;;;;;;;;;30.91;38.07;101656.94;2613410;36;19962;-51
2022/08/13 10:09:07;;;;;;;;;;;;;;;30.92;38.15;101641.97;2611985;36;19975;-52
2022/08/13 10:11:35;;;;;;;;;;;;;;;30.86;41.15;101644.91;2613457;36;19950;-49
2022/08/13 10:14:03;;;;;;;;;;;;;;;31.34;39.67;101643.44;2614134;36;19957;-51
2022/08/13 10:16:35;;;;;;;;;;;;;;;31.40;40.35;101636.84;2610250;36;19950;-52
2022/08/13 10:19:08;;;;;;;;;;;;;;;31.13;38.61;101636.75;2610464;36;19942;-53
2022/08/13 10:21:37;;;;;;;;;;;;;;;31.35;37.08;101634.00;2609943;36;20573;-52
2022/08/13 10:24:05;;;;;;;;;;;;;;;31.51;37.46;101623.91;2610323;36;20428;-54
2022/08/13 10:26:33;;;;;;;;;;;;;;;31.27;39.40;101631.66;2609473;31;20629;-50
2022/08/13 10:29:01;;;;;;;;;;;;;;;31.50;36.62;101615.84;2611772;36;20004;-50
2022/08/13 10:31:30;;;;;;;;;;;;;;;31.49;37.29;101619.69;2611173;31;19978;-52
2022/08/13 10:34:01;;;;;;;;;;;;;;;31.53;36.67;101618.09;2611843;36;19979;-51
2022/08/13 10:36:29;;;;;;;;;;;;;;;31.96;37.57;101619.16;2612832;36;19957;-52
2022/08/13 10:38:57;;;;;;;;;;;;;;;31.99;39.07;101627.00;2611703;31;19946;-50
2022/08/13 10:41:26;;;;;;;;;;;;;;;31.85;36.41;101614.63;2610845;36;19955;-51
2022/08/13 10:43:59;;;;;;;;;;;;;;;31.75;36.59;101616.16;2614055;36;20424;-53
2022/08/13 10:46:28;;;;;;;;;;;;;;;31.89;34.96;101610.19;2612299;36;20356;-48
2022/08/13 10:48:58;;;;;;;;;;;;;;;31.99;35.45;101599.16;2614535;36;19977;-49
2022/08/13 10:51:29;;;;;;;;;;;;;;;32.06;35.64;101605.34;2613408;36;19958;-49
2022/08/13 10:54:03;;;;;;;;;;;;;;;32.48;35.16;101601.06;2613708;36;19950;-48
2022/08/13 10:56:31;;;;;;;;;;;;;;;32.30;33.70;101600.34;2613922;36;19950;-51
2022/08/13 10:59:00;;;;;;;;;;;;;;;31.86;33.49;101600.44;2612962;36;19973;-49
2022/08/13 11:01:29;;;;;;;;;;;;;;;31.84;35.27;101599.00;2603572;36;19958;-50
2022/08/13 11:04:00;;;;;;;;;;;;;;;32.18;34.59;101604.41;2611811;36;20440;-51
2022/08/13 11:06:32;;;;;;;;;;;;;;;31.98;34.50;101600.28;2612919;36;20459;-54
2022/08/13 11:09:00;;;;;;;;;;;;;;;32.37;33.60;101608.47;2613014;31;19947;-49
2022/08/13 11:11:29;;;;;;;;;;;;;;;32.40;34.28;101609.88;2606632;36;20053;-50
2022/08/13 11:13:57;;;;;;;;;;;;;;;32.44;32.44;101600.72;2614183;36;19950;-49
2022/08/13 11:19:14;;;;;;;;;;;;;;;32.24;34.14;101606.13;2611952;31;20431;-50
2022/08/13 11:21:45;;;;;;;;;;;;;;;32.25;33.44;101599.44;2612592;36;19946;-50
2022/08/13 11:24:13;;;;;;;;;;;;;;;32.28;34.26;101604.50;2610305;36;20380;-47
2022/08/13 11:26:42;;;;;;;;;;;;;;;32.42;34.94;101599.31;2612307;36;20424;-50
2022/08/13 11:29:10;;;;;;;;;;;;;;;32.28;33.20;101585.00;2612324;36;20492;-49
2022/08/13 11:31:47;;;;;;;;;;;;;;;33.01;34.14;101587.25;2617584;36;20468;-48
2022/08/13 11:34:16;;;;;;;;;;;;;;;33.37;33.47;101579.06;2616637;36;19946;-52
2022/08/13 11:36:44;;;;;;;;;;;;;;;32.98;33.48;101582.19;2613910;36;19955;-49
2022/08/13 11:39:13;;;;;;;;;;;;;;;32.88;33.89;101587.69;2617667;36;20383;-49
2022/08/13 11:41:41;;;;;;;;;;;;;;;33.33;33.39;101575.13;2616504;31;20034;-54
2022/08/13 11:44:09;;;;;;;;;;;;;;;33.32;31.94;101576.28;2618535;36;19947;-49
2022/08/13 11:46:38;;;;;;;;;;;;;;;33.12;33.51;101575.00;2616801;36;19966;-53
2022/08/13 11:49:08;;;;;;;;;;;;;;;33.07;32.79;101569.41;2616830;36;19985;-51
2022/08/13 11:51:36;;;;;;;;;;;;;;;33.02;34.06;101574.97;2616775;36;19981;-51
2022/08/13 11:54:05;;;;;;;;;;;;;;;32.76;32.91;101574.81;2618804;36;19939;-50
2022/08/13 11:56:33;;;;;;;;;;;;;;;32.75;33.78;101564.75;2616992;36;19957;-53
2022/08/13 11:59:01;;;;;;;;;;;;;;;32.69;34.03;101568.63;2616695;36;20055;-52
2022/08/13 12:01:29;;;;;;;;;;;;;;;33.01;32.81;101573.31;2615553;31;20443;-51
2022/08/13 12:03:57;;;;;;;;;;;;;;;33.36;32.48;101555.06;2614437;36;19989;-47
2022/08/13 12:06:28;;;;;;;;;;;;;;;33.21;34.11;101558.63;2614242;36;19971;-49
2022/08/13 12:08:56;;;;;;;;;;;;;;;33.48;32.43;101563.19;2617271;36;19947;-54
2022/08/13 12:11:24;;;;;;;;;;;;;;;33.60;32.23;101560.16;2607909;31;20895;-51
2022/08/13 12:13:52;;;;;;;;;;;;;;;33.74;31.35;101550.19;2608042;31;19950;-52
2022/08/13 12:16:20;;;;;;;;;;;;;;;34.37;31.05;101552.78;2614839;36;19954;-50
2022/08/13 12:18:48;;;;;;;;;;;;;;;33.62;31.77;101563.53;2648238;36;20026;-52
2022/08/13 12:21:16;;;;;;;;;;;;;;;33.49;31.77;101559.28;2615180;36;19951;-52
2022/08/13 12:23:47;;;;;;;;;;;;;;;33.82;31.59;101552.44;2616182;36;19946;-53
2022/08/13 12:26:16;;;;;;;;;;;;;;;33.68;32.14;101545.69;2616964;36;19947;-48
2022/08/13 12:28:44;;;;;;;;;;;;;;;33.70;33.23;101549.88;2615650;36;19983;-53
2022/08/13 12:31:13;;;;;;;;;;;;;;;34.05;31.53;101555.81;2615154;36;20449;-49
2022/08/13 12:33:41;;;;;;;;;;;;;;;34.26;30.79;101544.66;2614387;36;19973;-52
2022/08/13 12:36:10;;;;;;;;;;;;;;;34.16;31.22;101546.34;2613028;36;20016;-51
2022/08/13 12:38:38;;;;;;;;;;;;;;;34.17;31.30;101542.44;2614378;36;19985;-48
2022/08/13 12:41:09;;;;;;;;;;;;;;;34.23;32.98;101546.03;2613141;31;20432;-50
2022/08/13 12:43:37;;;;;;;;;;;;;;;34.30;33.42;101545.81;2612014;31;19946;-52
2022/08/13 12:46:05;;;;;;;;;;;;;;;33.59;33.33;101539.78;2610971;31;19951;-52
2022/08/13 12:48:33;;;;;;;;;;;;;;;33.85;31.56;101549.09;2609397;36;19980;-51
2022/08/13 12:51:01;;;;;;;;;;;;;;;33.93;31.05;101542.13;2611275;31;21640;-49
2022/08/13 12:53:29;;;;;;;;;;;;;;;34.56;30.06;101538.25;2613079;36;19947;-48
2022/08/13 12:55:58;;;;;;;;;;;;;;;34.12;30.43;101545.22;2608654;36;19951;-51
2022/08/13 12:58:29;;;;;;;;;;;;;;;33.80;29.80;101542.66;2608849;36;19950;-50
2022/08/13 13:00:59;;;;;;;;;;;;;;;33.92;33.89;101534.84;2611440;36;19974;-50
2022/08/13 13:03:28;;;;;;;;;;;;;;;34.02;33.77;101534.03;2612924;31;20465;-50
2022/08/13 13:05:57;;;;;;;;;;;;;;;34.33;29.47;101532.09;2611592;36;19946;-52
2022/08/13 13:08:26;;;;;;;;;;;;;;;34.20;32.51;101539.06;2611339;31;19977;-52